sensor_id;sensor_type;location;lat;lon;timestamp;temperature;humidity
52439;DHT22;38359;53.150;6.504;2023-06-14T00:07:38;17.70;72.10
52439;DHT22;38359;53.150;6.504;2023-06-14T00:18:08;17.50;76.00
52439;DHT22;38359;53.150;6.504;2023-06-14T00:28:35;17.30;83.00
52439;DHT22;38359;53.150;6.504;2023-06-14T00:39:00;17.20;89.60
52439;DHT22;38359;53.150;6.504;2023-06-14T00:49:26;17.10;92.90
52439;DHT22;38359;53.150;6.504;2023-06-14T00:59:52;17.00;96.20
52439;DHT22;38359;53.150;6.504;2023-06-14T01:21:20;16.80;99.90
52439;DHT22;38359;53.150;6.504;2023-06-14T01:31:47;16.70;99.90
52439;DHT22;38359;53.150;6.504;2023-06-14T01:42:13;16.50;99.90
52439;DHT22;38359;53.150;6.504;2023-06-14T01:52:39;16.40;99.90
52439;DHT22;38359;53.150;6.504;2023-06-14T02:03:05;16.50;99.90
52439;DHT22;38359;53.150;6.504;2023-06-14T02:13:30;16.40;99.90
52439;DHT22;38359;53.150;6.504;2023-06-14T02:23:56;16.20;99.90
52439;DHT22;38359;53.150;6.504;2023-06-14T02:34:23;16.10;99.90
52439;DHT22;38359;53.150;6.504;2023-06-14T02:44:49;16.10;99.90
52439;DHT22;38359;53.150;6.504;2023-06-14T02:55:16;16.00;99.90
52439;DHT22;38359;53.150;6.504;2023-06-14T03:05:44;15.90;99.90
52439;DHT22;38359;53.150;6.504;2023-06-14T03:16:12;15.80;99.90
52439;DHT22;38359;53.150;6.504;2023-06-14T03:26:38;15.80;99.90
52439;DHT22;38359;53.150;6.504;2023-06-14T03:37:04;15.60;99.90
52439;DHT22;38359;53.150;6.504;2023-06-14T03:47:30;15.50;99.90
52439;DHT22;38359;53.150;6.504;2023-06-14T03:57:55;15.50;99.90
52439;DHT22;38359;53.150;6.504;2023-06-14T04:08:21;15.50;99.90
52439;DHT22;38359;53.150;6.504;2023-06-14T04:18:47;15.50;99.90
52439;DHT22;38359;53.150;6.504;2023-06-14T04:29:16;15.70;99.90
52439;DHT22;38359;53.150;6.504;2023-06-14T04:39:44;15.90;99.90
52439;DHT22;38359;53.150;6.504;2023-06-14T04:50:10;16.00;99.90
52439;DHT22;38359;53.150;6.504;2023-06-14T05:00:38;16.40;99.90
52439;DHT22;38359;53.150;6.504;2023-06-14T05:11:04;16.60;99.90
52439;DHT22;38359;53.150;6.504;2023-06-14T05:21:30;16.80;99.90
52439;DHT22;38359;53.150;6.504;2023-06-14T05:31:59;17.00;99.90
52439;DHT22;38359;53.150;6.504;2023-06-14T05:42:25;17.10;99.90
52439;DHT22;38359;53.150;6.504;2023-06-14T05:52:50;17.50;99.90
52439;DHT22;38359;53.150;6.504;2023-06-14T06:03:16;17.80;99.90
52439;DHT22;38359;53.150;6.504;2023-06-14T06:13:42;18.10;99.90
52439;DHT22;38359;53.150;6.504;2023-06-14T06:24:07;18.30;99.90
52439;DHT22;38359;53.150;6.504;2023-06-14T06:34:33;18.50;99.90
52439;DHT22;38359;53.150;6.504;2023-06-14T06:44:59;18.80;99.90
52439;DHT22;38359;53.150;6.504;2023-06-14T06:55:25;19.10;99.90
52439;DHT22;38359;53.150;6.504;2023-06-14T07:05:50;19.50;99.90
52439;DHT22;38359;53.150;6.504;2023-06-14T07:16:16;19.70;99.90
52439;DHT22;38359;53.150;6.504;2023-06-14T07:26:42;20.10;99.90
52439;DHT22;38359;53.150;6.504;2023-06-14T07:37:07;20.30;99.90
52439;DHT22;38359;53.150;6.504;2023-06-14T07:47:33;20.60;99.90
52439;DHT22;38359;53.150;6.504;2023-06-14T07:57:59;20.90;99.90
52439;DHT22;38359;53.150;6.504;2023-06-14T08:08:24;21.20;99.90
52439;DHT22;38359;53.150;6.504;2023-06-14T08:18:50;21.60;99.90
52439;DHT22;38359;53.150;6.504;2023-06-14T08:29:16;21.60;97.20
52439;DHT22;38359;53.150;6.504;2023-06-14T08:39:42;22.00;94.20
52439;DHT22;38359;53.150;6.504;2023-06-14T08:50:09;22.10;89.40
52439;DHT22;38359;53.150;6.504;2023-06-14T09:00:35;22.20;83.80
52439;DHT22;38359;53.150;6.504;2023-06-14T09:11:03;22.60;84.10
52439;DHT22;38359;53.150;6.504;2023-06-14T09:21:28;23.10;84.40
52439;DHT22;38359;53.150;6.504;2023-06-14T09:31:59;23.00;76.10
52439;DHT22;38359;53.150;6.504;2023-06-14T09:42:25;23.20;73.30
52439;DHT22;38359;53.150;6.504;2023-06-14T09:52:55;23.50;74.70
52439;DHT22;38359;53.150;6.504;2023-06-14T10:03:29;23.60;73.80
52439;DHT22;38359;53.150;6.504;2023-06-14T10:13:56;23.70;75.60
52439;DHT22;38359;53.150;6.504;2023-06-14T10:24:27;24.00;68.00
52439;DHT22;38359;53.150;6.504;2023-06-14T10:34:59;24.40;66.00
52439;DHT22;38359;53.150;6.504;2023-06-14T10:45:27;24.70;65.70
52439;DHT22;38359;53.150;6.504;2023-06-14T10:55:52;25.00;60.70
52439;DHT22;38359;53.150;6.504;2023-06-14T11:06:20;25.20;58.60
52439;DHT22;38359;53.150;6.504;2023-06-14T11:16:51;25.60;58.90
52439;DHT22;38359;53.150;6.504;2023-06-14T11:27:17;25.90;62.40
52439;DHT22;38359;53.150;6.504;2023-06-14T11:37:43;26.10;56.80
52439;DHT22;38359;53.150;6.504;2023-06-14T11:48:11;26.70;55.80
52439;DHT22;38359;53.150;6.504;2023-06-14T11:58:37;27.00;49.70
52439;DHT22;38359;53.150;6.504;2023-06-14T12:09:03;27.40;49.30
52439;DHT22;38359;53.150;6.504;2023-06-14T12:19:30;27.50;48.90
52439;DHT22;38359;53.150;6.504;2023-06-14T12:30:03;26.70;47.30
52439;DHT22;38359;53.150;6.504;2023-06-14T12:40:30;28.00;48.10
52439;DHT22;38359;53.150;6.504;2023-06-14T12:50:57;28.20;44.70
52439;DHT22;38359;53.150;6.504;2023-06-14T13:01:23;28.30;45.60
52439;DHT22;38359;53.150;6.504;2023-06-14T13:11:49;28.70;44.10
52439;DHT22;38359;53.150;6.504;2023-06-14T13:22:14;29.30;42.10
52439;DHT22;38359;53.150;6.504;2023-06-14T13:32:40;29.30;40.50
52439;DHT22;38359;53.150;6.504;2023-06-14T13:43:06;30.60;39.50
52439;DHT22;38359;53.150;6.504;2023-06-14T13:53:31;30.80;37.20
52439;DHT22;38359;53.150;6.504;2023-06-14T14:03:57;31.20;36.80
52439;DHT22;38359;53.150;6.504;2023-06-14T14:14:24;31.30;37.20
52439;DHT22;38359;53.150;6.504;2023-06-14T14:24:50;32.70;33.50
52439;DHT22;38359;53.150;6.504;2023-06-14T14:35:19;33.50;31.20
52439;DHT22;38359;53.150;6.504;2023-06-14T14:45:44;32.80;29.30
52439;DHT22;38359;53.150;6.504;2023-06-14T14:56:10;33.20;30.30
52439;DHT22;38359;53.150;6.504;2023-06-14T15:06:37;34.50;29.10
52439;DHT22;38359;53.150;6.504;2023-06-14T15:17:05;31.40;28.30
52439;DHT22;38359;53.150;6.504;2023-06-14T15:27:30;32.30;29.40
52439;DHT22;38359;53.150;6.504;2023-06-14T15:37:56;34.50;26.90
52439;DHT22;38359;53.150;6.504;2023-06-14T15:48:22;34.90;25.60
52439;DHT22;38359;53.150;6.504;2023-06-14T15:58:47;35.70;23.80
52439;DHT22;38359;53.150;6.504;2023-06-14T16:09:13;36.00;24.20
52439;DHT22;38359;53.150;6.504;2023-06-14T16:19:39;35.70;21.70
52439;DHT22;38359;53.150;6.504;2023-06-14T16:30:05;35.90;20.70
52439;DHT22;38359;53.150;6.504;2023-06-14T16:40:31;36.10;21.70
52439;DHT22;38359;53.150;6.504;2023-06-14T16:50:56;36.60;21.70
52439;DHT22;38359;53.150;6.504;2023-06-14T17:01:22;34.20;30.30
52439;DHT22;38359;53.150;6.504;2023-06-14T17:11:48;34.70;31.80
52439;DHT22;38359;53.150;6.504;2023-06-14T17:22:14;34.30;30.50
52439;DHT22;38359;53.150;6.504;2023-06-14T17:32:40;30.70;33.10
52439;DHT22;38359;53.150;6.504;2023-06-14T17:43:05;32.30;35.50
52439;DHT22;38359;53.150;6.504;2023-06-14T17:53:31;31.60;35.40
52439;DHT22;38359;53.150;6.504;2023-06-14T18:03:57;33.40;34.80
52439;DHT22;38359;53.150;6.504;2023-06-14T18:14:23;33.10;34.80
52439;DHT22;38359;53.150;6.504;2023-06-14T18:24:49;31.60;35.00
52439;DHT22;38359;53.150;6.504;2023-06-14T18:35:15;31.10;36.40
52439;DHT22;38359;53.150;6.504;2023-06-14T18:45:41;30.50;35.80
52439;DHT22;38359;53.150;6.504;2023-06-14T18:56:08;29.80;37.10
52439;DHT22;38359;53.150;6.504;2023-06-14T19:06:34;27.40;43.50
52439;DHT22;38359;53.150;6.504;2023-06-14T19:17:00;26.40;50.20
52439;DHT22;38359;53.150;6.504;2023-06-14T19:27:26;25.70;55.80
52439;DHT22;38359;53.150;6.504;2023-06-14T19:37:51;24.60;65.00
52439;DHT22;38359;53.150;6.504;2023-06-14T19:48:17;24.10;74.60
52439;DHT22;38359;53.150;6.504;2023-06-14T19:58:43;23.70;83.40
52439;DHT22;38359;53.150;6.504;2023-06-14T20:09:09;23.20;89.60
52439;DHT22;38359;53.150;6.504;2023-06-14T20:19:38;22.80;91.30
52439;DHT22;38359;53.150;6.504;2023-06-14T20:30:04;22.40;93.00
52439;DHT22;38359;53.150;6.504;2023-06-14T20:40:30;22.10;93.40
52439;DHT22;38359;53.150;6.504;2023-06-14T20:50:56;21.70;93.80
52439;DHT22;38359;53.150;6.504;2023-06-14T21:01:22;21.60;94.90
52439;DHT22;38359;53.150;6.504;2023-06-14T21:11:57;21.10;96.30
52439;DHT22;38359;53.150;6.504;2023-06-14T21:22:23;20.70;97.50
52439;DHT22;38359;53.150;6.504;2023-06-14T21:32:49;20.70;97.20
52439;DHT22;38359;53.150;6.504;2023-06-14T21:43:15;20.50;96.00
52439;DHT22;38359;53.150;6.504;2023-06-14T21:53:40;20.20;97.80
52439;DHT22;38359;53.150;6.504;2023-06-14T22:04:09;20.10;98.90
52439;DHT22;38359;53.150;6.504;2023-06-14T22:14:34;19.70;99.90
52439;DHT22;38359;53.150;6.504;2023-06-14T22:25:01;19.60;99.90
52439;DHT22;38359;53.150;6.504;2023-06-14T22:35:26;19.30;99.90
52439;DHT22;38359;53.150;6.504;2023-06-14T22:45:52;19.00;99.90
52439;DHT22;38359;53.150;6.504;2023-06-14T22:56:20;19.00;99.90
52439;DHT22;38359;53.150;6.504;2023-06-14T23:06:46;18.70;99.90
52439;DHT22;38359;53.150;6.504;2023-06-14T23:17:12;18.60;99.90
52439;DHT22;38359;53.150;6.504;2023-06-14T23:27:38;18.50;99.90
52439;DHT22;38359;53.150;6.504;2023-06-14T23:38:06;18.30;99.90
52439;DHT22;38359;53.150;6.504;2023-06-14T23:48:37;18.00;99.90
52439;DHT22;38359;53.150;6.504;2023-06-14T23:59:03;18.00;99.90
